EGBJ/GLO METAR and TAF weather

Enter ICAO airport designator
Station Type Date Time Source
EGBJ METAR 2019/04/18 18:20 UTC NOAA

EGBJ 181820Z 08007KT CAVOK 20/08 Q1023


Station Type Date Time Source
EGBJ Decoded METAR 2019/04/18 18:20 UTC NOAA

Staverton Private , United Kingdom (EGBJ) 51-54N 002-10W
Apr 18, 2019 - 02:20 PM EDT / 2019.04.18 1820 UTC
Wind: from the E (080 degrees) at 8 MPH (7 KT):0
Visibility: greater than 7 mile(s):0
Temperature: 68 F (20 C)
Dew Point: 46 F (8 C)
Relative Humidity: 45%
Pressure (altimeter): 30.21 in. Hg (1023 hPa)
ob: EGBJ 181820Z 08007KT CAVOK 20/08 Q1023
cycle: 18

Station Type Date Time Source
EGBJ TAF UTC NOAA

Error!

Example: see airport list